Fayette, Missouri
Current Conditions -  °F | °C
As of 4:35 AM on Sunday 26 Oct 2014 (Local Time) from KVER Reporting Station
Clear Clear  
Wind Chill: 55°   Ceiling: Unl
Heat Index: 55°   Visibility: 10mi
Dew Point: 47°   Wind: 3mph
Humidity: 76%   Direction: 80°E
Pressure: 30"   Gusts: NA
Location:  39.15°N, 92.68°W
Report Text: KVER 260935Z AUTO 08003KT 10SM CLR 13/08 A3000 RMK AO2 T01260084
Loading
Personal Weather Stations






























Interactive Weather Map
Tropical Storm Tracking
New forecast layout! Learn more

10-Day Weather Forecast

Advertisements
Track Severe Weather on mobile